الصفحة الرئيسية
METAR-TAF:

METAR-TAF

مطار :

Antofagasta, تشيلي

دائرة عرض: 23-26S, خط طول: 070-26W, ارتفاع: 135 متر

مراقبة الطقس الحالي

تاريخ ووقت الإصدار 44 دقيقة قبل الساعة 01:00UTC
ريح 8 عقدة من الجنوب
درجة الحرارة 14°درجة مئوية
الرطوبة 77%
ضغط 1016 hPa
الرؤية 10 كم أو أكثر
ملبد بالغيوم على ارتفاع 1700 قدم

METAR: SCFA 250100Z 19008KT 9999 OVC017 14/10 Q1016 NOSIG

زمن: 21:44 (01:44 UTC)

توقعات

تاريخ ووقت الإصدار 3ساعات و 44 دقيقة قبل الساعة 22:00UTC
التوقعات صالحة من25 الساعة 00 UTC إلى 25 الساعة 24 UTC
ريح 12 عقدة من الجنوب/الجنوب الغربي
الرؤية 10 كم أو أكثر
ملبد بالغيوم على ارتفاع 1500 قدم
مؤقت
من 25 الساعة 00 UTC إلى 25 الساعة 06 UTC
غيوم متفرقة على ارتفاع 700 قدم
ملبد بالغيوم على ارتفاع 1000 قدم
رذاذ خفيف
أصبح
من 25 الساعة 04 UTC إلى 25 الساعة 06 UTC
ريح 4 عقدة من الجنوب الشرقي
أصبح
من 25 الساعة 16 UTC إلى 25 الساعة 18 UTC
ريح 14 عقدة من الجنوب/الجنوب الغربي
غيوم مفككة على ارتفاع 2000 قدم

TAF: SCFA 242200Z 2500/2524 20012KT 9999 OVC015 TN13/2506Z TX15/2518Z TEMPO 2500/2506 -DZ SCT007 OVC010 BECMG 2504/2506 14004KT BECMG 2516/2518 20014KT BKN020

أرصاد الطقس والتوقعات من أكثر من 4000 مطار (تقارير الطقس للمطار METAR والتنبؤ بالطقس بالمطارTAF).

المحطات المتاحة هي النقط الصفراء والحمراء على الخريطة.

حرك المؤشر فوق النقطة لمعرفة اسم المحطة.

ثم انقر لمعرفة أرصاد وتوقعات الطقس.

لتغيير الخارطة: اضغط على الأزرار الخضراء مع رمز الصليب الأسود للتكبير. على الزر الأخضر مع شرطة للتصغير، أو على الأسهم الخضراء للخرائط المجاورة.


METAR-TAF: